sensor_id;sensor_type;location;lat;lon;timestamp;P1;durP1;ratioP1;P2;durP2;ratioP2
12654;SDS011;6392;44.644;11.448;2022-12-10T00:02:26;26.60;;;18.10;;
12654;SDS011;6392;44.644;11.448;2022-12-10T00:04:55;33.57;;;19.10;;
12654;SDS011;6392;44.644;11.448;2022-12-10T00:07:23;31.73;;;18.30;;
12654;SDS011;6392;44.644;11.448;2022-12-10T00:09:50;31.47;;;18.13;;
12654;SDS011;6392;44.644;11.448;2022-12-10T00:12:17;29.43;;;17.97;;
12654;SDS011;6392;44.644;11.448;2022-12-10T00:14:45;29.40;;;17.97;;
12654;SDS011;6392;44.644;11.448;2022-12-10T00:17:12;29.83;;;18.67;;
12654;SDS011;6392;44.644;11.448;2022-12-10T00:19:39;29.47;;;18.33;;
12654;SDS011;6392;44.644;11.448;2022-12-10T00:22:07;29.37;;;17.87;;
12654;SDS011;6392;44.644;11.448;2022-12-10T00:24:35;32.77;;;19.03;;
12654;SDS011;6392;44.644;11.448;2022-12-10T00:27:02;29.63;;;17.50;;
12654;SDS011;6392;44.644;11.448;2022-12-10T00:29:30;27.47;;;17.47;;
12654;SDS011;6392;44.644;11.448;2022-12-10T00:31:57;30.30;;;18.90;;
12654;SDS011;6392;44.644;11.448;2022-12-10T00:34:24;29.20;;;18.20;;
12654;SDS011;6392;44.644;11.448;2022-12-10T00:36:51;31.53;;;19.27;;
12654;SDS011;6392;44.644;11.448;2022-12-10T00:39:18;31.90;;;19.07;;
12654;SDS011;6392;44.644;11.448;2022-12-10T00:41:48;34.23;;;19.23;;
12654;SDS011;6392;44.644;11.448;2022-12-10T00:44:16;31.13;;;18.23;;
12654;SDS011;6392;44.644;11.448;2022-12-10T00:46:43;30.43;;;19.03;;
12654;SDS011;6392;44.644;11.448;2022-12-10T00:49:10;31.67;;;18.70;;
12654;SDS011;6392;44.644;11.448;2022-12-10T00:51:38;35.60;;;19.40;;
12654;SDS011;6392;44.644;11.448;2022-12-10T00:54:06;30.57;;;18.70;;
12654;SDS011;6392;44.644;11.448;2022-12-10T00:56:34;32.07;;;18.63;;
12654;SDS011;6392;44.644;11.448;2022-12-10T00:59:03;33.27;;;18.77;;
12654;SDS011;6392;44.644;11.448;2022-12-10T01:01:31;29.80;;;17.27;;
12654;SDS011;6392;44.644;11.448;2022-12-10T01:04:00;29.30;;;18.10;;
12654;SDS011;6392;44.644;11.448;2022-12-10T01:06:29;29.93;;;18.63;;
12654;SDS011;6392;44.644;11.448;2022-12-10T01:08:58;25.27;;;16.57;;
12654;SDS011;6392;44.644;11.448;2022-12-10T01:11:28;28.97;;;17.40;;
12654;SDS011;6392;44.644;11.448;2022-12-10T01:13:56;31.90;;;18.70;;
12654;SDS011;6392;44.644;11.448;2022-12-10T01:16:25;29.17;;;17.77;;
12654;SDS011;6392;44.644;11.448;2022-12-10T01:18:53;29.37;;;18.00;;
12654;SDS011;6392;44.644;11.448;2022-12-10T01:21:21;30.93;;;18.07;;
12654;SDS011;6392;44.644;11.448;2022-12-10T01:23:49;28.57;;;17.40;;
12654;SDS011;6392;44.644;11.448;2022-12-10T01:26:18;29.20;;;17.50;;
12654;SDS011;6392;44.644;11.448;2022-12-10T01:28:46;34.53;;;19.87;;
12654;SDS011;6392;44.644;11.448;2022-12-10T01:31:15;33.13;;;20.00;;
12654;SDS011;6392;44.644;11.448;2022-12-10T01:33:44;34.13;;;19.77;;
12654;SDS011;6392;44.644;11.448;2022-12-10T01:36:12;33.93;;;18.80;;
12654;SDS011;6392;44.644;11.448;2022-12-10T01:38:41;30.97;;;18.67;;
12654;SDS011;6392;44.644;11.448;2022-12-10T01:41:13;30.17;;;17.97;;
12654;SDS011;6392;44.644;11.448;2022-12-10T01:46:51;30.53;;;17.57;;
12654;SDS011;6392;44.644;11.448;2022-12-10T01:49:22;27.20;;;16.67;;
12654;SDS011;6392;44.644;11.448;2022-12-10T01:51:51;29.00;;;16.77;;
12654;SDS011;6392;44.644;11.448;2022-12-10T01:54:21;27.90;;;16.27;;
12654;SDS011;6392;44.644;11.448;2022-12-10T01:56:54;29.20;;;17.53;;
12654;SDS011;6392;44.644;11.448;2022-12-10T01:59:25;28.80;;;17.23;;
12654;SDS011;6392;44.644;11.448;2022-12-10T02:01:53;28.17;;;16.87;;
12654;SDS011;6392;44.644;11.448;2022-12-10T02:04:29;30.37;;;18.00;;
12654;SDS011;6392;44.644;11.448;2022-12-10T02:07:02;28.57;;;16.83;;
12654;SDS011;6392;44.644;11.448;2022-12-10T02:09:35;28.13;;;16.53;;
12654;SDS011;6392;44.644;11.448;2022-12-10T02:12:06;29.13;;;17.23;;
12654;SDS011;6392;44.644;11.448;2022-12-10T02:14:40;30.00;;;18.37;;
12654;SDS011;6392;44.644;11.448;2022-12-10T02:17:14;31.13;;;17.40;;
12654;SDS011;6392;44.644;11.448;2022-12-10T02:19:56;29.30;;;17.80;;
12654;SDS011;6392;44.644;11.448;2022-12-10T02:22:28;28.23;;;17.30;;
12654;SDS011;6392;44.644;11.448;2022-12-10T02:25:00;28.77;;;16.10;;
12654;SDS011;6392;44.644;11.448;2022-12-10T02:27:31;27.27;;;15.93;;
12654;SDS011;6392;44.644;11.448;2022-12-10T02:30:05;26.37;;;16.23;;
12654;SDS011;6392;44.644;11.448;2022-12-10T02:32:34;26.50;;;15.37;;
12654;SDS011;6392;44.644;11.448;2022-12-10T02:35:06;24.53;;;14.93;;
12654;SDS011;6392;44.644;11.448;2022-12-10T02:37:38;27.23;;;15.60;;
12654;SDS011;6392;44.644;11.448;2022-12-10T02:40:07;23.67;;;15.63;;
12654;SDS011;6392;44.644;11.448;2022-12-10T02:42:39;26.73;;;15.47;;
12654;SDS011;6392;44.644;11.448;2022-12-10T02:45:11;27.10;;;15.07;;
12654;SDS011;6392;44.644;11.448;2022-12-10T02:47:38;27.27;;;16.30;;
12654;SDS011;6392;44.644;11.448;2022-12-10T02:50:07;31.43;;;17.17;;
12654;SDS011;6392;44.644;11.448;2022-12-10T02:52:37;25.73;;;15.60;;
12654;SDS011;6392;44.644;11.448;2022-12-10T02:55:04;25.60;;;15.77;;
12654;SDS011;6392;44.644;11.448;2022-12-10T02:57:33;28.50;;;15.90;;
12654;SDS011;6392;44.644;11.448;2022-12-10T03:00:08;24.67;;;15.57;;
12654;SDS011;6392;44.644;11.448;2022-12-10T03:02:57;27.00;;;15.67;;
12654;SDS011;6392;44.644;11.448;2022-12-10T03:05:36;25.33;;;15.70;;
12654;SDS011;6392;44.644;11.448;2022-12-10T03:08:12;24.87;;;15.40;;
12654;SDS011;6392;44.644;11.448;2022-12-10T03:10:44;24.80;;;15.00;;
12654;SDS011;6392;44.644;11.448;2022-12-10T03:13:19;24.07;;;14.27;;
12654;SDS011;6392;44.644;11.448;2022-12-10T03:15:53;24.57;;;14.20;;
12654;SDS011;6392;44.644;11.448;2022-12-10T03:18:22;25.80;;;14.57;;
12654;SDS011;6392;44.644;11.448;2022-12-10T03:20:52;23.97;;;15.43;;
12654;SDS011;6392;44.644;11.448;2022-12-10T03:23:24;24.97;;;15.60;;
12654;SDS011;6392;44.644;11.448;2022-12-10T03:25:54;21.93;;;14.03;;
12654;SDS011;6392;44.644;11.448;2022-12-10T03:28:21;22.50;;;14.83;;
12654;SDS011;6392;44.644;11.448;2022-12-10T03:30:53;23.33;;;14.63;;
12654;SDS011;6392;44.644;11.448;2022-12-10T03:33:23;25.53;;;15.30;;
12654;SDS011;6392;44.644;11.448;2022-12-10T03:35:50;24.87;;;14.10;;
12654;SDS011;6392;44.644;11.448;2022-12-10T03:38:17;23.50;;;14.67;;
12654;SDS011;6392;44.644;11.448;2022-12-10T03:40:45;25.53;;;13.90;;
12654;SDS011;6392;44.644;11.448;2022-12-10T03:43:12;23.43;;;14.70;;
12654;SDS011;6392;44.644;11.448;2022-12-10T03:45:39;23.77;;;15.17;;
12654;SDS011;6392;44.644;11.448;2022-12-10T03:48:08;22.87;;;13.53;;
12654;SDS011;6392;44.644;11.448;2022-12-10T03:50:35;22.03;;;13.23;;
12654;SDS011;6392;44.644;11.448;2022-12-10T03:53:02;21.70;;;13.33;;
12654;SDS011;6392;44.644;11.448;2022-12-10T03:55:29;24.57;;;13.73;;
12654;SDS011;6392;44.644;11.448;2022-12-10T03:57:57;23.70;;;13.30;;
12654;SDS011;6392;44.644;11.448;2022-12-10T04:00:24;26.77;;;13.50;;
12654;SDS011;6392;44.644;11.448;2022-12-10T04:02:52;23.10;;;13.30;;
12654;SDS011;6392;44.644;11.448;2022-12-10T04:05:20;21.27;;;14.00;;
12654;SDS011;6392;44.644;11.448;2022-12-10T04:07:47;21.57;;;13.57;;
12654;SDS011;6392;44.644;11.448;2022-12-10T04:10:14;23.43;;;13.47;;
12654;SDS011;6392;44.644;11.448;2022-12-10T04:12:41;25.03;;;14.20;;
12654;SDS011;6392;44.644;11.448;2022-12-10T04:15:28;22.63;;;14.33;;
12654;SDS011;6392;44.644;11.448;2022-12-10T04:18:09;23.43;;;13.90;;
12654;SDS011;6392;44.644;11.448;2022-12-10T04:20:38;23.70;;;13.73;;
12654;SDS011;6392;44.644;11.448;2022-12-10T04:23:22;22.07;;;12.60;;
12654;SDS011;6392;44.644;11.448;2022-12-10T04:26:06;25.87;;;14.50;;
12654;SDS011;6392;44.644;11.448;2022-12-10T04:28:51;21.77;;;13.03;;
12654;SDS011;6392;44.644;11.448;2022-12-10T04:31:18;22.57;;;13.90;;
12654;SDS011;6392;44.644;11.448;2022-12-10T04:33:45;21.07;;;13.40;;
12654;SDS011;6392;44.644;11.448;2022-12-10T04:36:13;25.43;;;13.53;;
12654;SDS011;6392;44.644;11.448;2022-12-10T04:38:40;27.00;;;14.60;;
12654;SDS011;6392;44.644;11.448;2022-12-10T04:41:07;25.47;;;14.93;;
12654;SDS011;6392;44.644;11.448;2022-12-10T04:43:40;22.33;;;14.00;;
12654;SDS011;6392;44.644;11.448;2022-12-10T04:46:08;25.73;;;14.90;;
12654;SDS011;6392;44.644;11.448;2022-12-10T04:48:35;23.77;;;14.27;;
12654;SDS011;6392;44.644;11.448;2022-12-10T04:51:02;25.73;;;15.13;;
12654;SDS011;6392;44.644;11.448;2022-12-10T04:53:31;25.00;;;14.77;;
12654;SDS011;6392;44.644;11.448;2022-12-10T04:55:58;22.17;;;14.13;;
12654;SDS011;6392;44.644;11.448;2022-12-10T04:58:26;23.47;;;14.20;;
12654;SDS011;6392;44.644;11.448;2022-12-10T05:01:00;22.83;;;14.27;;
12654;SDS011;6392;44.644;11.448;2022-12-10T05:03:28;21.70;;;14.30;;
12654;SDS011;6392;44.644;11.448;2022-12-10T05:05:55;25.87;;;15.30;;
12654;SDS011;6392;44.644;11.448;2022-12-10T05:08:22;22.33;;;13.70;;
12654;SDS011;6392;44.644;11.448;2022-12-10T05:10:50;24.00;;;14.27;;
12654;SDS011;6392;44.644;11.448;2022-12-10T05:13:17;21.93;;;13.33;;
12654;SDS011;6392;44.644;11.448;2022-12-10T05:15:44;21.33;;;14.07;;
12654;SDS011;6392;44.644;11.448;2022-12-10T05:18:12;22.30;;;13.43;;
12654;SDS011;6392;44.644;11.448;2022-12-10T05:20:39;27.67;;;14.50;;
12654;SDS011;6392;44.644;11.448;2022-12-10T05:23:07;23.67;;;14.00;;
12654;SDS011;6392;44.644;11.448;2022-12-10T05:25:58;23.57;;;13.77;;
12654;SDS011;6392;44.644;11.448;2022-12-10T05:28:26;23.40;;;13.83;;
12654;SDS011;6392;44.644;11.448;2022-12-10T05:30:53;22.83;;;14.10;;
12654;SDS011;6392;44.644;11.448;2022-12-10T05:33:20;23.73;;;14.60;;
12654;SDS011;6392;44.644;11.448;2022-12-10T05:35:51;25.23;;;14.93;;
12654;SDS011;6392;44.644;11.448;2022-12-10T05:38:19;25.37;;;14.43;;
12654;SDS011;6392;44.644;11.448;2022-12-10T05:40:47;24.13;;;14.27;;
12654;SDS011;6392;44.644;11.448;2022-12-10T05:43:15;25.83;;;15.20;;
12654;SDS011;6392;44.644;11.448;2022-12-10T05:45:43;23.27;;;14.40;;
12654;SDS011;6392;44.644;11.448;2022-12-10T05:48:10;26.67;;;14.77;;
12654;SDS011;6392;44.644;11.448;2022-12-10T05:50:38;23.90;;;14.90;;
12654;SDS011;6392;44.644;11.448;2022-12-10T05:53:06;25.27;;;15.27;;
12654;SDS011;6392;44.644;11.448;2022-12-10T05:55:33;24.13;;;16.00;;
12654;SDS011;6392;44.644;11.448;2022-12-10T05:58:00;30.57;;;17.70;;
12654;SDS011;6392;44.644;11.448;2022-12-10T06:00:29;23.23;;;15.27;;
12654;SDS011;6392;44.644;11.448;2022-12-10T06:02:56;26.23;;;15.57;;
12654;SDS011;6392;44.644;11.448;2022-12-10T06:05:23;26.97;;;17.07;;
12654;SDS011;6392;44.644;11.448;2022-12-10T06:07:50;26.07;;;15.50;;
12654;SDS011;6392;44.644;11.448;2022-12-10T06:10:17;23.73;;;14.97;;
12654;SDS011;6392;44.644;11.448;2022-12-10T06:12:44;24.30;;;15.70;;
12654;SDS011;6392;44.644;11.448;2022-12-10T06:15:11;26.50;;;14.77;;
12654;SDS011;6392;44.644;11.448;2022-12-10T06:17:39;26.20;;;15.30;;
12654;SDS011;6392;44.644;11.448;2022-12-10T06:20:07;25.93;;;14.83;;
12654;SDS011;6392;44.644;11.448;2022-12-10T06:22:35;26.63;;;15.53;;
12654;SDS011;6392;44.644;11.448;2022-12-10T06:25:02;25.70;;;16.50;;
12654;SDS011;6392;44.644;11.448;2022-12-10T06:27:30;25.53;;;15.60;;
12654;SDS011;6392;44.644;11.448;2022-12-10T06:29:57;23.87;;;15.50;;
12654;SDS011;6392;44.644;11.448;2022-12-10T06:32:24;27.60;;;16.00;;
12654;SDS011;6392;44.644;11.448;2022-12-10T06:34:53;25.87;;;16.73;;
12654;SDS011;6392;44.644;11.448;2022-12-10T06:37:20;24.47;;;15.50;;
12654;SDS011;6392;44.644;11.448;2022-12-10T06:39:49;26.07;;;16.87;;
12654;SDS011;6392;44.644;11.448;2022-12-10T06:42:17;27.30;;;17.40;;
12654;SDS011;6392;44.644;11.448;2022-12-10T06:44:44;23.73;;;15.10;;
12654;SDS011;6392;44.644;11.448;2022-12-10T06:47:11;24.13;;;14.67;;
12654;SDS011;6392;44.644;11.448;2022-12-10T06:49:39;23.37;;;15.50;;
12654;SDS011;6392;44.644;11.448;2022-12-10T06:52:07;25.13;;;15.60;;
12654;SDS011;6392;44.644;11.448;2022-12-10T06:54:34;26.33;;;15.83;;
12654;SDS011;6392;44.644;11.448;2022-12-10T06:57:01;23.83;;;15.57;;
12654;SDS011;6392;44.644;11.448;2022-12-10T06:59:28;26.67;;;15.97;;
12654;SDS011;6392;44.644;11.448;2022-12-10T07:01:55;25.90;;;14.93;;
12654;SDS011;6392;44.644;11.448;2022-12-10T07:04:22;25.23;;;15.90;;
12654;SDS011;6392;44.644;11.448;2022-12-10T07:06:50;25.93;;;16.10;;
12654;SDS011;6392;44.644;11.448;2022-12-10T07:09:19;25.87;;;16.37;;
12654;SDS011;6392;44.644;11.448;2022-12-10T07:11:46;25.40;;;16.77;;
12654;SDS011;6392;44.644;11.448;2022-12-10T07:14:13;25.77;;;16.53;;
12654;SDS011;6392;44.644;11.448;2022-12-10T07:16:41;23.80;;;14.47;;
12654;SDS011;6392;44.644;11.448;2022-12-10T07:19:09;24.87;;;16.87;;
12654;SDS011;6392;44.644;11.448;2022-12-10T07:21:39;26.57;;;16.20;;
12654;SDS011;6392;44.644;11.448;2022-12-10T07:24:09;22.67;;;15.50;;
12654;SDS011;6392;44.644;11.448;2022-12-10T07:26:39;24.10;;;15.23;;
12654;SDS011;6392;44.644;11.448;2022-12-10T07:29:09;22.57;;;13.63;;
12654;SDS011;6392;44.644;11.448;2022-12-10T07:31:39;22.13;;;14.07;;
12654;SDS011;6392;44.644;11.448;2022-12-10T07:34:06;24.30;;;14.93;;
12654;SDS011;6392;44.644;11.448;2022-12-10T07:36:33;25.37;;;15.47;;
12654;SDS011;6392;44.644;11.448;2022-12-10T07:39:00;24.30;;;15.23;;
12654;SDS011;6392;44.644;11.448;2022-12-10T07:41:30;26.47;;;15.67;;
12654;SDS011;6392;44.644;11.448;2022-12-10T07:43:58;28.43;;;17.80;;
12654;SDS011;6392;44.644;11.448;2022-12-10T07:46:26;23.93;;;15.93;;
12654;SDS011;6392;44.644;11.448;2022-12-10T07:48:55;26.87;;;16.70;;
12654;SDS011;6392;44.644;11.448;2022-12-10T07:51:23;23.37;;;15.97;;
12654;SDS011;6392;44.644;11.448;2022-12-10T07:53:51;29.40;;;17.47;;
12654;SDS011;6392;44.644;11.448;2022-12-10T07:56:19;25.33;;;17.00;;
12654;SDS011;6392;44.644;11.448;2022-12-10T07:58:47;25.80;;;17.57;;
12654;SDS011;6392;44.644;11.448;2022-12-10T08:01:17;26.20;;;16.30;;
12654;SDS011;6392;44.644;11.448;2022-12-10T08:03:47;23.53;;;15.13;;
12654;SDS011;6392;44.644;11.448;2022-12-10T08:06:15;27.03;;;17.30;;
12654;SDS011;6392;44.644;11.448;2022-12-10T08:08:44;29.77;;;17.87;;
12654;SDS011;6392;44.644;11.448;2022-12-10T08:11:12;27.00;;;17.30;;
12654;SDS011;6392;44.644;11.448;2022-12-10T08:13:40;28.97;;;17.30;;
12654;SDS011;6392;44.644;11.448;2022-12-10T08:16:08;28.80;;;17.07;;
12654;SDS011;6392;44.644;11.448;2022-12-10T08:18:39;28.53;;;18.33;;
12654;SDS011;6392;44.644;11.448;2022-12-10T08:21:07;27.07;;;18.13;;
12654;SDS011;6392;44.644;11.448;2022-12-10T08:23:35;26.07;;;17.47;;
12654;SDS011;6392;44.644;11.448;2022-12-10T08:26:03;27.60;;;17.93;;
12654;SDS011;6392;44.644;11.448;2022-12-10T08:28:31;28.67;;;17.70;;
12654;SDS011;6392;44.644;11.448;2022-12-10T08:30:58;28.17;;;18.43;;
12654;SDS011;6392;44.644;11.448;2022-12-10T08:33:25;30.13;;;19.47;;
12654;SDS011;6392;44.644;11.448;2022-12-10T08:35:58;30.13;;;19.50;;
12654;SDS011;6392;44.644;11.448;2022-12-10T08:38:25;29.03;;;19.00;;
12654;SDS011;6392;44.644;11.448;2022-12-10T08:40:52;30.87;;;20.70;;
12654;SDS011;6392;44.644;11.448;2022-12-10T08:43:20;29.83;;;19.57;;
12654;SDS011;6392;44.644;11.448;2022-12-10T08:45:47;29.40;;;19.23;;
12654;SDS011;6392;44.644;11.448;2022-12-10T08:48:14;32.00;;;20.83;;
12654;SDS011;6392;44.644;11.448;2022-12-10T08:50:41;29.03;;;20.20;;
12654;SDS011;6392;44.644;11.448;2022-12-10T08:53:10;30.13;;;20.43;;
12654;SDS011;6392;44.644;11.448;2022-12-10T08:55:37;30.63;;;19.77;;
12654;SDS011;6392;44.644;11.448;2022-12-10T08:58:05;27.07;;;18.63;;
12654;SDS011;6392;44.644;11.448;2022-12-10T09:00:33;29.77;;;19.77;;
12654;SDS011;6392;44.644;11.448;2022-12-10T09:03:00;33.63;;;23.87;;
12654;SDS011;6392;44.644;11.448;2022-12-10T09:05:27;38.17;;;21.07;;
12654;SDS011;6392;44.644;11.448;2022-12-10T09:07:54;30.07;;;19.97;;
12654;SDS011;6392;44.644;11.448;2022-12-10T09:10:23;29.47;;;18.90;;
12654;SDS011;6392;44.644;11.448;2022-12-10T09:12:50;30.67;;;20.13;;
12654;SDS011;6392;44.644;11.448;2022-12-10T09:15:20;29.37;;;20.00;;
12654;SDS011;6392;44.644;11.448;2022-12-10T09:17:47;34.70;;;19.90;;
12654;SDS011;6392;44.644;11.448;2022-12-10T09:20:14;34.80;;;23.00;;
12654;SDS011;6392;44.644;11.448;2022-12-10T09:22:42;34.90;;;23.03;;
12654;SDS011;6392;44.644;11.448;2022-12-10T09:25:09;32.77;;;21.50;;
12654;SDS011;6392;44.644;11.448;2022-12-10T09:27:38;32.00;;;21.60;;
12654;SDS011;6392;44.644;11.448;2022-12-10T09:30:05;34.87;;;23.10;;
12654;SDS011;6392;44.644;11.448;2022-12-10T09:32:33;36.67;;;23.20;;
12654;SDS011;6392;44.644;11.448;2022-12-10T09:35:01;37.73;;;23.50;;
12654;SDS011;6392;44.644;11.448;2022-12-10T09:37:28;39.27;;;23.27;;
12654;SDS011;6392;44.644;11.448;2022-12-10T09:39:55;37.43;;;24.33;;
12654;SDS011;6392;44.644;11.448;2022-12-10T09:42:26;36.23;;;23.30;;
12654;SDS011;6392;44.644;11.448;2022-12-10T09:45:02;36.17;;;23.73;;
12654;SDS011;6392;44.644;11.448;2022-12-10T09:47:40;41.30;;;26.30;;
12654;SDS011;6392;44.644;11.448;2022-12-10T09:50:16;34.57;;;22.93;;
12654;SDS011;6392;44.644;11.448;2022-12-10T09:52:49;37.43;;;24.40;;
12654;SDS011;6392;44.644;11.448;2022-12-10T09:55:20;37.67;;;24.50;;
12654;SDS011;6392;44.644;11.448;2022-12-10T09:57:53;35.73;;;24.07;;
12654;SDS011;6392;44.644;11.448;2022-12-10T10:00:23;35.93;;;23.47;;
12654;SDS011;6392;44.644;11.448;2022-12-10T10:02:55;36.37;;;23.70;;
12654;SDS011;6392;44.644;11.448;2022-12-10T10:05:25;37.00;;;23.77;;
12654;SDS011;6392;44.644;11.448;2022-12-10T10:07:55;40.43;;;25.57;;
12654;SDS011;6392;44.644;11.448;2022-12-10T10:10:25;41.20;;;25.43;;
12654;SDS011;6392;44.644;11.448;2022-12-10T10:12:55;37.93;;;24.47;;
12654;SDS011;6392;44.644;11.448;2022-12-10T10:15:28;36.97;;;23.33;;
12654;SDS011;6392;44.644;11.448;2022-12-10T10:18:01;39.37;;;26.33;;
12654;SDS011;6392;44.644;11.448;2022-12-10T10:20:31;40.03;;;26.97;;
12654;SDS011;6392;44.644;11.448;2022-12-10T10:22:58;39.77;;;25.07;;
12654;SDS011;6392;44.644;11.448;2022-12-10T10:25:26;38.83;;;27.57;;
12654;SDS011;6392;44.644;11.448;2022-12-10T10:27:54;39.77;;;25.50;;
12654;SDS011;6392;44.644;11.448;2022-12-10T10:30:22;41.47;;;28.70;;
12654;SDS011;6392;44.644;11.448;2022-12-10T10:32:52;38.33;;;26.90;;
12654;SDS011;6392;44.644;11.448;2022-12-10T10:35:24;43.23;;;27.60;;
12654;SDS011;6392;44.644;11.448;2022-12-10T10:37:57;41.47;;;28.23;;
12654;SDS011;6392;44.644;11.448;2022-12-10T10:40:28;40.77;;;26.47;;
12654;SDS011;6392;44.644;11.448;2022-12-10T10:42:57;37.50;;;24.83;;
12654;SDS011;6392;44.644;11.448;2022-12-10T10:45:38;41.73;;;26.73;;
12654;SDS011;6392;44.644;11.448;2022-12-10T10:48:11;39.67;;;25.93;;
12654;SDS011;6392;44.644;11.448;2022-12-10T10:50:42;35.73;;;24.40;;
12654;SDS011;6392;44.644;11.448;2022-12-10T10:53:24;37.93;;;25.17;;
12654;SDS011;6392;44.644;11.448;2022-12-10T10:55:54;42.27;;;25.23;;
12654;SDS011;6392;44.644;11.448;2022-12-10T10:58:24;38.70;;;26.47;;
12654;SDS011;6392;44.644;11.448;2022-12-10T11:00:56;41.23;;;27.13;;
12654;SDS011;6392;44.644;11.448;2022-12-10T11:03:27;41.73;;;27.10;;
12654;SDS011;6392;44.644;11.448;2022-12-10T11:05:59;43.43;;;28.70;;
12654;SDS011;6392;44.644;11.448;2022-12-10T11:08:29;43.93;;;27.27;;
12654;SDS011;6392;44.644;11.448;2022-12-10T11:10:58;43.53;;;29.90;;
12654;SDS011;6392;44.644;11.448;2022-12-10T11:13:29;42.53;;;28.20;;
12654;SDS011;6392;44.644;11.448;2022-12-10T11:15:59;47.73;;;31.17;;
12654;SDS011;6392;44.644;11.448;2022-12-10T11:18:36;48.70;;;31.23;;
12654;SDS011;6392;44.644;11.448;2022-12-10T11:21:15;47.23;;;30.30;;
12654;SDS011;6392;44.644;11.448;2022-12-10T11:23:47;46.87;;;30.30;;
12654;SDS011;6392;44.644;11.448;2022-12-10T11:29:14;48.03;;;31.60;;
12654;SDS011;6392;44.644;11.448;2022-12-10T11:32:09;42.70;;;28.03;;
12654;SDS011;6392;44.644;11.448;2022-12-10T11:35:00;46.13;;;28.80;;
12654;SDS011;6392;44.644;11.448;2022-12-10T11:37:37;45.73;;;29.60;;
12654;SDS011;6392;44.644;11.448;2022-12-10T11:43:08;46.07;;;30.70;;
12654;SDS011;6392;44.644;11.448;2022-12-10T11:46:01;48.03;;;29.43;;
12654;SDS011;6392;44.644;11.448;2022-12-10T11:48:45;49.70;;;30.13;;
12654;SDS011;6392;44.644;11.448;2022-12-10T11:51:26;47.30;;;30.87;;
12654;SDS011;6392;44.644;11.448;2022-12-10T11:57:00;45.07;;;27.80;;
12654;SDS011;6392;44.644;11.448;2022-12-10T11:59:36;45.37;;;27.87;;
12654;SDS011;6392;44.644;11.448;2022-12-10T12:02:21;46.30;;;28.57;;
12654;SDS011;6392;44.644;11.448;2022-12-10T12:05:07;48.73;;;30.07;;
12654;SDS011;6392;44.644;11.448;2022-12-10T12:07:48;47.83;;;29.93;;
12654;SDS011;6392;44.644;11.448;2022-12-10T12:10:30;48.80;;;30.23;;
12654;SDS011;6392;44.644;11.448;2022-12-10T12:13:18;49.03;;;30.27;;
12654;SDS011;6392;44.644;11.448;2022-12-10T12:15:50;46.80;;;28.87;;
12654;SDS011;6392;44.644;11.448;2022-12-10T12:18:23;53.10;;;30.50;;
12654;SDS011;6392;44.644;11.448;2022-12-10T12:20:58;48.03;;;28.97;;
12654;SDS011;6392;44.644;11.448;2022-12-10T12:23:33;45.07;;;27.53;;
12654;SDS011;6392;44.644;11.448;2022-12-10T12:26:08;52.10;;;29.63;;
12654;SDS011;6392;44.644;11.448;2022-12-10T12:28:41;52.23;;;31.20;;
12654;SDS011;6392;44.644;11.448;2022-12-10T12:31:14;52.00;;;33.30;;
12654;SDS011;6392;44.644;11.448;2022-12-10T12:33:47;53.97;;;30.97;;
12654;SDS011;6392;44.644;11.448;2022-12-10T12:36:19;56.43;;;31.80;;
12654;SDS011;6392;44.644;11.448;2022-12-10T12:38:50;50.57;;;29.57;;
12654;SDS011;6392;44.644;11.448;2022-12-10T12:41:26;54.43;;;31.30;;
12654;SDS011;6392;44.644;11.448;2022-12-10T12:44:02;48.40;;;28.67;;
12654;SDS011;6392;44.644;11.448;2022-12-10T12:46:35;53.37;;;31.13;;
12654;SDS011;6392;44.644;11.448;2022-12-10T12:49:09;47.77;;;30.17;;
12654;SDS011;6392;44.644;11.448;2022-12-10T12:51:43;52.87;;;31.37;;
12654;SDS011;6392;44.644;11.448;2022-12-10T12:54:18;53.37;;;31.13;;
12654;SDS011;6392;44.644;11.448;2022-12-10T12:56:52;53.00;;;32.20;;
12654;SDS011;6392;44.644;11.448;2022-12-10T12:59:31;50.40;;;30.17;;
12654;SDS011;6392;44.644;11.448;2022-12-10T13:02:15;47.17;;;28.37;;
12654;SDS011;6392;44.644;11.448;2022-12-10T13:04:51;50.17;;;30.07;;
12654;SDS011;6392;44.644;11.448;2022-12-10T13:07:29;51.17;;;31.77;;
12654;SDS011;6392;44.644;11.448;2022-12-10T13:10:22;53.73;;;31.37;;
12654;SDS011;6392;44.644;11.448;2022-12-10T13:12:51;53.37;;;34.50;;
12654;SDS011;6392;44.644;11.448;2022-12-10T13:15:33;50.93;;;32.70;;
12654;SDS011;6392;44.644;11.448;2022-12-10T13:20:50;50.10;;;29.70;;
12654;SDS011;6392;44.644;11.448;2022-12-10T13:23:47;56.27;;;31.70;;
12654;SDS011;6392;44.644;11.448;2022-12-10T13:26:24;58.30;;;33.87;;
12654;SDS011;6392;44.644;11.448;2022-12-10T13:28:53;53.60;;;33.93;;
12654;SDS011;6392;44.644;11.448;2022-12-10T13:31:22;54.80;;;33.70;;
12654;SDS011;6392;44.644;11.448;2022-12-10T13:34:25;55.37;;;32.53;;
12654;SDS011;6392;44.644;11.448;2022-12-10T13:37:05;56.93;;;34.63;;
12654;SDS011;6392;44.644;11.448;2022-12-10T13:39:45;55.60;;;32.57;;
12654;SDS011;6392;44.644;11.448;2022-12-10T13:42:32;59.17;;;33.87;;
12654;SDS011;6392;44.644;11.448;2022-12-10T13:45:29;53.37;;;32.53;;
12654;SDS011;6392;44.644;11.448;2022-12-10T13:48:17;54.13;;;31.67;;
12654;SDS011;6392;44.644;11.448;2022-12-10T13:51:12;56.53;;;32.17;;
12654;SDS011;6392;44.644;11.448;2022-12-10T13:53:49;58.33;;;33.67;;
12654;SDS011;6392;44.644;11.448;2022-12-10T13:56:27;56.50;;;31.53;;
12654;SDS011;6392;44.644;11.448;2022-12-10T13:59:00;56.27;;;32.50;;
12654;SDS011;6392;44.644;11.448;2022-12-10T14:01:42;60.63;;;34.30;;
12654;SDS011;6392;44.644;11.448;2022-12-10T14:07:11;54.13;;;33.27;;
12654;SDS011;6392;44.644;11.448;2022-12-10T14:09:42;51.50;;;28.63;;
12654;SDS011;6392;44.644;11.448;2022-12-10T14:12:14;51.07;;;29.77;;
12654;SDS011;6392;44.644;11.448;2022-12-10T14:14:47;55.47;;;33.60;;
12654;SDS011;6392;44.644;11.448;2022-12-10T14:17:19;51.93;;;29.23;;
12654;SDS011;6392;44.644;11.448;2022-12-10T14:19:52;52.50;;;32.37;;
12654;SDS011;6392;44.644;11.448;2022-12-10T14:22:22;51.30;;;29.90;;
12654;SDS011;6392;44.644;11.448;2022-12-10T14:24:58;47.23;;;27.87;;
12654;SDS011;6392;44.644;11.448;2022-12-10T14:27:27;48.03;;;28.13;;
12654;SDS011;6392;44.644;11.448;2022-12-10T14:30:00;49.97;;;29.07;;
12654;SDS011;6392;44.644;11.448;2022-12-10T14:32:31;51.57;;;30.67;;
12654;SDS011;6392;44.644;11.448;2022-12-10T14:35:00;48.00;;;29.70;;
12654;SDS011;6392;44.644;11.448;2022-12-10T14:37:30;46.70;;;27.33;;
12654;SDS011;6392;44.644;11.448;2022-12-10T14:40:01;44.53;;;27.03;;
12654;SDS011;6392;44.644;11.448;2022-12-10T14:42:32;41.80;;;25.63;;
12654;SDS011;6392;44.644;11.448;2022-12-10T14:45:02;41.53;;;26.23;;
12654;SDS011;6392;44.644;11.448;2022-12-10T14:47:32;41.93;;;25.03;;
12654;SDS011;6392;44.644;11.448;2022-12-10T14:50:03;40.33;;;24.70;;
12654;SDS011;6392;44.644;11.448;2022-12-10T14:52:33;42.23;;;24.60;;
12654;SDS011;6392;44.644;11.448;2022-12-10T14:55:05;44.63;;;26.77;;
12654;SDS011;6392;44.644;11.448;2022-12-10T14:57:38;41.03;;;26.03;;
12654;SDS011;6392;44.644;11.448;2022-12-10T15:00:11;41.47;;;25.07;;
12654;SDS011;6392;44.644;11.448;2022-12-10T15:02:42;36.57;;;22.57;;